createdAt,value
2018-03-04T00:01:33.159Z,108.53
2018-03-04T00:03:59.595Z,109.60
2018-03-04T00:06:25.951Z,117.37
2018-03-04T00:08:52.322Z,108.05
2018-03-04T00:11:18.687Z,112.68
2018-03-04T00:13:45.047Z,107.15
2018-03-04T00:16:11.430Z,110.55
2018-03-04T00:18:38.527Z,113.72
2018-03-04T00:21:04.916Z,109.87
2018-03-04T00:23:32.031Z,116.32
2018-03-04T00:25:58.391Z,111.30
2018-03-04T00:28:25.497Z,111.93
2018-03-04T00:30:51.859Z,122.68
2018-03-04T00:33:18.982Z,109.45
2018-03-04T00:35:45.405Z,117.05
2018-03-04T00:38:11.800Z,116.10
2018-03-04T00:40:38.175Z,116.65
2018-03-04T00:43:05.554Z,131.30
2018-03-04T00:45:31.943Z,116.28
2018-03-04T00:47:58.388Z,118.47
2018-03-04T00:50:24.787Z,119.43
2018-03-04T00:52:51.149Z,116.07
2018-03-04T00:55:17.531Z,124.00
2018-03-04T00:57:44.629Z,108.53
2018-03-04T01:00:11.012Z,107.00
2018-03-04T01:02:38.109Z,112.28
2018-03-04T01:05:04.619Z,122.30
2018-03-04T01:07:31.089Z,106.10
2018-03-04T01:09:57.459Z,114.90
2018-03-04T01:12:24.780Z,119.60
2018-03-04T01:14:52.147Z,107.78
2018-03-04T01:17:18.518Z,113.57
2018-03-04T01:19:44.902Z,118.40
2018-03-04T01:22:11.322Z,122.20
2018-03-04T01:24:37.702Z,105.78
2018-03-04T01:27:04.897Z,117.40
2018-03-04T01:29:31.286Z,121.15
2018-03-04T01:31:59.435Z,123.93
2018-03-04T01:34:27.043Z,137.90
2018-03-04T01:36:53.371Z,121.50
2018-03-04T01:39:20.419Z,133.02
2018-03-04T01:41:46.746Z,139.85
2018-03-04T01:44:13.810Z,129.15
2018-03-04T01:46:40.128Z,136.30
2018-03-04T01:49:06.446Z,134.27
2018-03-04T01:51:45.922Z,146.75
2018-03-04T01:54:12.243Z,132.10
2018-03-04T01:56:38.555Z,144.40
2018-03-04T01:59:06.630Z,174.85
2018-03-04T02:01:33.684Z,161.60
2018-03-04T02:04:00.013Z,154.12
2018-03-04T02:06:26.342Z,158.75
2018-03-04T02:08:52.695Z,174.80
2018-03-04T02:11:19.013Z,169.52
2018-03-04T02:13:45.361Z,180.23
2018-03-04T02:16:11.694Z,156.10
2018-03-04T02:18:38.018Z,156.45
2018-03-04T02:21:04.318Z,140.10
2018-03-04T02:23:31.370Z,161.65
2018-03-04T02:25:58.418Z,169.23
2018-03-04T02:28:25.500Z,142.15
2018-03-04T02:30:51.843Z,164.68
2018-03-04T02:33:18.189Z,156.40
2018-03-04T02:35:44.523Z,150.45
2018-03-04T02:38:10.837Z,128.82
2018-03-04T02:40:38.194Z,130.82
2018-03-04T02:43:04.508Z,129.77
2018-03-04T02:45:30.831Z,135.60
2018-03-04T02:47:57.139Z,124.60
2018-03-04T02:50:23.458Z,121.07
2018-03-04T02:52:50.507Z,128.18
2018-03-04T02:55:17.563Z,144.52
2018-03-04T02:57:43.887Z,137.27
2018-03-04T03:00:10.962Z,152.50
2018-03-04T03:02:37.287Z,135.93
2018-03-04T03:05:03.664Z,145.38
2018-03-04T03:07:30.035Z,161.18
2018-03-04T03:09:56.349Z,161.70
2018-03-04T03:12:23.406Z,153.05
2018-03-04T03:14:50.486Z,154.18
2018-03-04T03:17:16.801Z,154.02
2018-03-04T03:19:43.106Z,150.10
2018-03-04T03:22:11.139Z,129.57
2018-03-04T03:24:37.445Z,127.60
2018-03-04T03:27:03.788Z,114.68
2018-03-04T03:29:30.097Z,117.85
2018-03-04T03:31:56.585Z,132.23
2018-03-04T03:34:22.906Z,104.90
2018-03-04T03:36:49.950Z,96.63
2018-03-04T03:39:16.258Z,89.60
2018-03-04T03:41:42.590Z,76.62
2018-03-04T03:44:08.910Z,82.80
2018-03-04T03:46:35.211Z,64.00
2018-03-04T03:49:02.318Z,58.35
2018-03-04T03:51:28.646Z,67.32
2018-03-04T03:53:54.954Z,63.80
2018-03-04T03:56:21.259Z,52.17
2018-03-04T03:58:47.565Z,51.72
2018-03-04T04:01:14.614Z,49.30
2018-03-04T04:03:41.661Z,55.17
2018-03-04T04:06:08.718Z,41.00
2018-03-04T04:08:35.811Z,38.28
2018-03-04T04:11:02.128Z,41.20
2018-03-04T04:13:28.438Z,41.42
2018-03-04T04:15:55.481Z,64.62
2018-03-04T04:18:22.569Z,71.15
2018-03-04T04:20:49.899Z,73.55
2018-03-04T04:23:16.199Z,65.12
2018-03-04T04:25:43.267Z,71.62
2018-03-04T04:28:09.610Z,57.17
2018-03-04T04:30:35.948Z,55.55
2018-03-04T04:33:02.264Z,37.38
2018-03-04T04:35:29.582Z,36.00
2018-03-04T04:37:56.758Z,34.95
2018-03-04T04:40:23.835Z,41.70
2018-03-04T04:42:50.138Z,42.53
2018-03-04T04:45:18.205Z,46.35
2018-03-04T04:47:46.304Z,61.13
2018-03-04T04:50:12.620Z,65.68
2018-03-04T04:52:38.918Z,65.37
2018-03-04T04:55:05.236Z,61.78
2018-03-04T04:57:31.544Z,61.05
2018-03-04T04:59:57.865Z,56.28
2018-03-04T05:02:24.178Z,67.22
2018-03-04T05:04:50.506Z,55.63
2018-03-04T05:07:16.822Z,56.95
2018-03-04T05:09:43.878Z,49.90
2018-03-04T05:12:10.181Z,60.45
2018-03-04T05:14:36.493Z,53.45
2018-03-04T05:17:02.811Z,59.53
2018-03-04T05:19:29.124Z,46.67
2018-03-04T05:21:55.460Z,44.45
2018-03-04T05:24:21.765Z,45.97
2018-03-04T05:26:48.066Z,41.17
2018-03-04T05:29:14.389Z,36.00
2018-03-04T05:31:40.722Z,44.13
2018-03-04T05:34:07.040Z,33.70
2018-03-04T05:36:33.350Z,43.92
2018-03-04T05:39:02.271Z,37.90
2018-03-04T05:41:29.589Z,50.72
2018-03-04T05:43:55.898Z,46.85
2018-03-04T05:46:22.229Z,32.88
2018-03-04T05:48:48.531Z,34.63
2018-03-04T05:51:15.583Z,25.85
2018-03-04T05:53:42.651Z,29.33
2018-03-04T05:56:08.959Z,27.50
2018-03-04T05:58:36.023Z,26.58
2018-03-04T06:01:05.000Z,20.02
2018-03-04T06:03:31.579Z,19.40
2018-03-04T06:06:05.480Z,25.42
2018-03-04T06:08:32.116Z,18.87
2018-03-04T06:11:01.352Z,26.58
2018-03-04T06:13:28.426Z,36.63
2018-03-04T06:15:55.461Z,42.92
2018-03-04T06:18:23.252Z,55.12
2018-03-04T06:20:50.838Z,60.40
2018-03-04T06:23:17.212Z,62.62
2018-03-04T06:25:44.299Z,60.15
2018-03-04T06:28:10.619Z,54.78
2018-03-04T06:30:41.670Z,46.30
2018-03-04T06:33:09.321Z,55.25
2018-03-04T06:35:36.371Z,55.92
2018-03-04T06:38:07.954Z,48.60
2018-03-04T06:40:38.259Z,46.97
2018-03-04T06:43:04.611Z,46.95
2018-03-04T06:45:31.909Z,35.55
2018-03-04T06:47:59.230Z,43.53
2018-03-04T06:50:25.727Z,45.75
2018-03-04T06:52:52.039Z,39.13
2018-03-04T06:55:19.098Z,49.53
2018-03-04T06:57:46.148Z,42.72
2018-03-04T07:00:13.199Z,38.85
2018-03-04T07:02:39.724Z,41.03
2018-03-04T07:05:06.799Z,42.85
2018-03-04T07:07:33.138Z,39.20
2018-03-04T07:09:59.444Z,47.00
2018-03-04T07:12:27.546Z,33.05
2018-03-04T07:14:53.851Z,40.78
2018-03-04T07:17:20.174Z,42.58
2018-03-04T07:19:48.324Z,39.45
2018-03-04T07:22:15.419Z,37.45
2018-03-04T07:24:41.737Z,40.45
2018-03-04T07:27:08.244Z,39.80
2018-03-04T07:29:35.381Z,37.33
2018-03-04T07:32:01.732Z,37.47
2018-03-04T07:34:28.798Z,33.45
2018-03-04T07:36:55.112Z,34.17
2018-03-04T07:39:22.167Z,31.42
2018-03-04T07:41:49.222Z,28.00
2018-03-04T07:44:15.546Z,32.63
2018-03-04T07:46:42.596Z,32.42
2018-03-04T07:49:08.924Z,28.40
2018-03-04T07:51:35.979Z,30.10
2018-03-04T07:54:02.284Z,29.70
2018-03-04T07:56:28.596Z,31.12
2018-03-04T07:58:54.906Z,27.87
2018-03-04T08:01:21.229Z,23.33
2018-03-04T08:03:47.571Z,25.50
2018-03-04T08:06:13.898Z,28.38
2018-03-04T08:08:40.206Z,24.45
2018-03-04T08:11:06.518Z,27.62
2018-03-04T08:13:33.558Z,26.83
2018-03-04T08:16:00.742Z,24.12
2018-03-04T08:18:27.059Z,21.70
2018-03-04T08:20:53.370Z,22.17
2018-03-04T08:23:20.449Z,21.17
2018-03-04T08:25:46.750Z,19.23
2018-03-04T08:28:26.019Z,23.25
2018-03-04T08:30:52.346Z,22.77
2018-03-04T08:33:18.659Z,21.17
2018-03-04T08:35:44.992Z,21.27
2018-03-04T08:38:11.302Z,15.80
2018-03-04T08:40:38.364Z,13.00
2018-03-04T08:43:04.683Z,13.80
2018-03-04T08:45:31.754Z,15.27
2018-03-04T08:47:58.075Z,15.27
2018-03-04T08:50:24.400Z,15.85
2018-03-04T08:52:50.719Z,12.63
2018-03-04T08:55:17.788Z,11.90
2018-03-04T08:57:44.170Z,11.50
2018-03-04T09:00:10.502Z,14.27
2018-03-04T09:02:36.819Z,13.05
2018-03-04T09:05:04.166Z,10.13
2018-03-04T09:07:30.486Z,15.70
2018-03-04T09:09:56.822Z,17.47
2018-03-04T09:12:23.145Z,14.73
2018-03-04T09:14:49.496Z,10.63
2018-03-04T09:17:16.798Z,9.10
2018-03-04T09:19:43.161Z,7.87
2018-03-04T09:22:09.443Z,6.10
2018-03-04T09:24:36.508Z,11.52
2018-03-04T09:27:02.856Z,11.40
2018-03-04T09:29:29.179Z,12.30
2018-03-04T09:31:55.477Z,13.10
2018-03-04T09:34:21.796Z,15.43
2018-03-04T09:36:49.112Z,11.13
2018-03-04T09:39:15.439Z,13.70
2018-03-04T09:41:41.754Z,12.63
2018-03-04T09:44:08.074Z,8.67
2018-03-04T09:46:35.120Z,10.17
2018-03-04T09:49:03.160Z,13.93
2018-03-04T09:51:29.486Z,9.90
2018-03-04T09:53:55.800Z,12.93
2018-03-04T09:56:22.126Z,11.80
2018-03-04T09:58:48.440Z,12.43
2018-03-04T10:01:15.771Z,10.20
2018-03-04T10:03:42.094Z,11.33
2018-03-04T10:06:08.402Z,12.33
2018-03-04T10:08:34.742Z,9.47
2018-03-04T10:11:01.072Z,8.00
2018-03-04T10:13:27.374Z,6.17
2018-03-04T10:15:54.470Z,5.30
2018-03-04T10:18:21.550Z,5.30
2018-03-04T10:20:47.860Z,5.87
2018-03-04T10:23:14.185Z,10.03
2018-03-04T10:25:40.518Z,12.43
2018-03-04T10:28:06.829Z,8.93
2018-03-04T10:30:33.166Z,13.07
2018-03-04T10:32:59.490Z,11.40
2018-03-04T10:35:25.800Z,12.97
2018-03-04T10:37:52.118Z,12.47
2018-03-04T10:40:19.161Z,15.53
2018-03-04T10:42:46.206Z,15.73
2018-03-04T10:45:14.297Z,15.47
2018-03-04T10:47:40.612Z,14.20
2018-03-04T10:50:06.939Z,15.02
2018-03-04T10:52:34.443Z,13.87
2018-03-04T10:55:00.782Z,13.10
2018-03-04T10:57:27.096Z,12.93
2018-03-04T10:59:53.496Z,12.13
2018-03-04T11:02:22.652Z,13.70
2018-03-04T11:04:49.005Z,14.47
2018-03-04T11:07:16.099Z,17.03
2018-03-04T11:09:42.508Z,12.13
2018-03-04T11:12:08.790Z,13.23
2018-03-04T11:14:35.107Z,11.10
2018-03-04T11:17:01.415Z,11.50
2018-03-04T11:19:27.750Z,10.43
2018-03-04T11:21:54.059Z,9.57
2018-03-04T11:24:22.137Z,8.90
2018-03-04T11:26:48.444Z,8.30
2018-03-04T11:29:15.496Z,12.40
2018-03-04T11:31:43.563Z,13.30
2018-03-04T11:34:10.617Z,10.60
2018-03-04T11:36:37.707Z,12.17
2018-03-04T11:39:04.066Z,10.77
2018-03-04T11:41:30.414Z,11.47
2018-03-04T11:43:56.710Z,9.43
2018-03-04T11:46:23.264Z,12.77
2018-03-04T11:48:49.582Z,18.17
2018-03-04T11:51:15.910Z,10.93
2018-03-04T11:53:43.261Z,17.20
2018-03-04T11:56:09.592Z,14.10
2018-03-04T11:58:35.898Z,13.57
2018-03-04T12:01:02.245Z,12.73
2018-03-04T12:03:29.578Z,12.20
2018-03-04T12:05:56.072Z,13.30
2018-03-04T12:08:23.379Z,17.00
2018-03-04T12:10:49.697Z,13.10
2018-03-04T12:13:16.011Z,14.20
2018-03-04T12:15:43.074Z,18.20
2018-03-04T12:18:09.390Z,13.27
2018-03-04T12:20:36.451Z,13.57
2018-03-04T12:23:02.758Z,16.20
2018-03-04T12:25:29.847Z,17.90
2018-03-04T12:27:56.173Z,20.40
2018-03-04T12:30:22.491Z,14.57
2018-03-04T12:32:48.815Z,14.00
2018-03-04T12:35:15.146Z,10.77
2018-03-04T12:37:41.478Z,14.50
2018-03-04T12:40:07.795Z,13.70
2018-03-04T12:42:34.859Z,13.10
2018-03-04T12:45:02.215Z,10.53
2018-03-04T12:47:29.288Z,9.50
2018-03-04T12:49:55.595Z,12.40
2018-03-04T12:52:21.924Z,13.00
2018-03-04T12:54:48.246Z,13.63
2018-03-04T12:57:15.435Z,10.63
2018-03-04T12:59:41.799Z,12.83
2018-03-04T13:02:08.130Z,10.70
2018-03-04T13:04:35.473Z,10.33
2018-03-04T13:07:01.786Z,10.40
2018-03-04T13:09:29.134Z,12.50
2018-03-04T13:11:55.495Z,13.03
2018-03-04T13:14:22.920Z,9.33
2018-03-04T13:16:49.240Z,12.23
2018-03-04T13:19:15.633Z,8.67
2018-03-04T13:21:41.947Z,10.27
2018-03-04T13:24:09.014Z,12.80
2018-03-04T13:26:36.079Z,11.60
2018-03-04T13:29:03.123Z,10.17
2018-03-04T13:31:30.166Z,13.57
2018-03-04T13:33:57.240Z,9.93
2018-03-04T13:36:23.549Z,11.70
2018-03-04T13:38:50.595Z,11.13
2018-03-04T13:41:17.687Z,11.50
2018-03-04T13:43:44.006Z,13.67
2018-03-04T13:46:10.306Z,12.33
2018-03-04T13:48:37.350Z,12.70
2018-03-04T13:51:04.411Z,11.70
2018-03-04T13:53:30.735Z,12.73
2018-03-04T13:55:58.804Z,12.00
2018-03-04T13:58:25.855Z,13.17
2018-03-04T14:00:53.206Z,11.43
2018-03-04T14:03:20.285Z,12.00
2018-03-04T14:05:46.590Z,12.43
2018-03-04T14:08:13.638Z,12.93
2018-03-04T14:10:40.709Z,12.03
2018-03-04T14:13:07.011Z,12.80
2018-03-04T14:15:35.073Z,12.97
2018-03-04T14:18:02.158Z,14.30
2018-03-04T14:20:28.467Z,13.50
2018-03-04T14:22:54.770Z,13.47
2018-03-04T14:25:21.074Z,13.87
2018-03-04T14:27:47.403Z,13.50
2018-03-04T14:30:13.730Z,14.87
2018-03-04T14:32:40.040Z,18.97
2018-03-04T14:35:06.353Z,16.80
2018-03-04T14:37:32.662Z,14.50
2018-03-04T14:39:59.716Z,16.00
2018-03-04T14:42:28.553Z,15.73
2018-03-04T14:44:54.858Z,15.87
2018-03-04T14:47:21.222Z,15.37
2018-03-04T14:49:47.537Z,18.00
2018-03-04T14:52:13.965Z,18.53
2018-03-04T14:54:40.293Z,19.13
2018-03-04T14:57:06.634Z,18.10
2018-03-04T14:59:32.953Z,18.70
2018-03-04T15:01:59.284Z,18.17
2018-03-04T15:04:25.895Z,15.60
2018-03-04T15:06:52.214Z,15.30
2018-03-04T15:09:19.273Z,14.47
2018-03-04T15:11:46.311Z,15.20
2018-03-04T15:14:13.363Z,15.20
2018-03-04T15:16:40.423Z,16.10
2018-03-04T15:19:06.758Z,16.33
2018-03-04T15:21:33.071Z,14.93
2018-03-04T15:24:00.171Z,18.40
2018-03-04T15:26:26.614Z,15.60
2018-03-04T15:28:53.923Z,14.93
2018-03-04T15:31:20.236Z,14.60
2018-03-04T15:33:47.290Z,11.33
2018-03-04T15:36:14.342Z,13.53
2018-03-04T15:38:41.404Z,13.23
2018-03-04T15:41:07.710Z,13.93
2018-03-04T15:43:34.784Z,12.10
2018-03-04T15:46:01.086Z,12.50
2018-03-04T15:48:28.147Z,11.37
2018-03-04T15:50:54.467Z,13.97
2018-03-04T15:53:21.531Z,11.23
2018-03-04T15:55:47.857Z,10.93
2018-03-04T15:58:14.174Z,12.03
2018-03-04T16:00:42.260Z,15.70
2018-03-04T16:03:08.587Z,15.33
2018-03-04T16:05:35.642Z,14.13
2018-03-04T16:08:01.956Z,15.53
2018-03-04T16:10:29.006Z,15.47
2018-03-04T16:12:56.051Z,14.47
2018-03-04T16:15:23.106Z,18.97
2018-03-04T16:17:49.418Z,15.70
2018-03-04T16:20:16.493Z,16.00
2018-03-04T16:22:42.811Z,15.50
2018-03-04T16:25:09.866Z,17.80
2018-03-04T16:27:36.188Z,16.97
2018-03-04T16:30:03.269Z,19.40
2018-03-04T16:32:29.595Z,19.60
2018-03-04T16:34:56.922Z,19.30
2018-03-04T16:37:23.981Z,23.30
2018-03-04T16:39:50.286Z,23.77
2018-03-04T16:42:18.351Z,20.33
2018-03-04T16:44:44.695Z,28.60
2018-03-04T16:47:11.777Z,23.30
2018-03-04T16:49:38.114Z,21.15
2018-03-04T16:52:04.426Z,24.60
2018-03-04T16:54:30.795Z,22.10
2018-03-04T16:56:57.118Z,24.05
2018-03-04T16:59:23.447Z,24.33
2018-03-04T17:01:49.767Z,27.92
2018-03-04T17:04:16.102Z,29.08
2018-03-04T17:06:42.423Z,29.23
2018-03-04T17:09:08.726Z,26.30
2018-03-04T17:11:35.909Z,25.85
2018-03-04T17:14:02.245Z,26.05
2018-03-04T17:16:28.582Z,30.75
2018-03-04T17:18:54.890Z,27.40
2018-03-04T17:21:21.291Z,25.37
2018-03-04T17:23:47.618Z,24.90
2018-03-04T17:26:13.938Z,25.98
2018-03-04T17:28:40.380Z,26.52
2018-03-04T17:31:06.850Z,30.60
2018-03-04T17:33:33.166Z,26.42
2018-03-04T17:35:59.534Z,30.85
2018-03-04T17:38:26.875Z,40.33
2018-03-04T17:40:53.175Z,28.42
2018-03-04T17:43:20.265Z,29.00
2018-03-04T17:45:46.598Z,29.85
2018-03-04T17:48:12.902Z,33.53
2018-03-04T17:50:40.202Z,29.35
2018-03-04T17:53:06.556Z,37.28
2018-03-04T17:55:33.612Z,34.85
2018-03-04T17:58:00.673Z,34.58
2018-03-04T18:00:26.998Z,35.58
2018-03-04T18:02:54.042Z,35.00
2018-03-04T18:05:21.105Z,34.13
2018-03-04T18:07:47.416Z,44.78
2018-03-04T18:10:14.502Z,39.70
2018-03-04T18:12:40.815Z,31.83
2018-03-04T18:15:07.139Z,36.15
2018-03-04T18:17:33.495Z,36.65
2018-03-04T18:19:59.814Z,36.40
2018-03-04T18:22:26.178Z,40.67
2018-03-04T18:24:52.485Z,36.10
2018-03-04T18:27:18.812Z,39.97
2018-03-04T18:29:45.155Z,39.67
2018-03-04T18:32:11.538Z,39.10
2018-03-04T18:34:37.971Z,32.72
2018-03-04T18:37:05.040Z,43.60
2018-03-04T18:39:32.166Z,44.15
2018-03-04T18:41:58.499Z,40.70
2018-03-04T18:44:25.546Z,42.67
2018-03-04T18:46:53.610Z,38.45
2018-03-04T18:49:19.923Z,38.85
2018-03-04T18:51:46.238Z,44.85
2018-03-04T18:54:12.554Z,45.63
2018-03-04T18:56:38.880Z,41.40
2018-03-04T18:59:05.218Z,47.30
2018-03-04T19:01:31.526Z,43.60
2018-03-04T19:03:57.850Z,45.88
2018-03-04T19:06:24.170Z,49.22
2018-03-04T19:08:51.235Z,51.58
2018-03-04T19:11:17.544Z,50.10
2018-03-04T19:13:44.607Z,50.95
2018-03-04T19:16:10.916Z,58.53
2018-03-04T19:18:37.232Z,52.67
2018-03-04T19:21:03.550Z,49.00
2018-03-04T19:23:29.870Z,50.58
2018-03-04T19:25:57.218Z,52.40
2018-03-04T19:28:23.600Z,54.97
2018-03-04T19:30:50.662Z,55.45
2018-03-04T19:33:17.730Z,53.90
2018-03-04T19:35:44.047Z,49.25
2018-03-04T19:38:10.577Z,55.80
2018-03-04T19:40:36.913Z,49.50
2018-03-04T19:43:03.239Z,52.78
2018-03-04T19:45:29.570Z,56.13
2018-03-04T19:47:55.878Z,53.25
2018-03-04T19:50:22.941Z,51.42
2018-03-04T19:52:49.997Z,50.20
2018-03-04T19:55:16.323Z,57.40
2018-03-04T19:57:43.373Z,50.00
2018-03-04T20:00:10.426Z,57.08
2018-03-04T20:02:36.802Z,53.90
2018-03-04T20:05:03.134Z,53.63
2018-03-04T20:07:30.002Z,54.58
2018-03-04T20:09:56.299Z,55.97
2018-03-04T20:12:23.643Z,73.90
2018-03-04T20:14:49.946Z,69.97
2018-03-04T20:17:16.254Z,65.97
2018-03-04T20:19:43.317Z,57.03
2018-03-04T20:22:11.407Z,59.83
2018-03-04T20:24:37.726Z,64.65
2018-03-04T20:27:04.071Z,65.57
2018-03-04T20:29:30.415Z,56.72
2018-03-04T20:31:56.740Z,57.35
2018-03-04T20:34:23.095Z,66.82
2018-03-04T20:36:49.421Z,53.95
2018-03-04T20:39:15.750Z,61.22
2018-03-04T20:41:42.083Z,61.22
2018-03-04T20:44:08.406Z,59.95
2018-03-04T20:46:34.743Z,62.03
2018-03-04T20:49:01.069Z,63.95
2018-03-04T20:51:28.406Z,60.50
2018-03-04T20:53:54.722Z,57.95
2018-03-04T20:56:22.526Z,80.80
2018-03-04T20:58:48.854Z,76.20
2018-03-04T21:01:15.166Z,73.93
2018-03-04T21:03:41.482Z,248.27
2018-03-04T21:06:07.806Z,110.70
2018-03-04T21:08:34.854Z,70.32
2018-03-04T21:11:01.906Z,75.43
2018-03-04T21:13:28.231Z,61.88
2018-03-04T21:15:55.282Z,65.03
2018-03-04T21:18:21.610Z,71.22
2018-03-04T21:20:48.722Z,64.55
2018-03-04T21:23:15.046Z,67.00
2018-03-04T21:25:41.354Z,60.70
2018-03-04T21:28:08.708Z,69.55
2018-03-04T21:30:35.045Z,59.45
2018-03-04T21:33:02.385Z,53.47
2018-03-04T21:35:28.727Z,58.08
2018-03-04T21:37:55.050Z,57.53
2018-03-04T21:40:21.381Z,57.33
2018-03-04T21:42:47.695Z,55.28
2018-03-04T21:45:14.028Z,60.17
2018-03-04T21:47:40.342Z,60.85
2018-03-04T21:50:07.399Z,62.35
2018-03-04T21:52:34.457Z,60.12
2018-03-04T21:55:01.529Z,52.45
2018-03-04T21:57:27.853Z,65.97
2018-03-04T21:59:54.182Z,55.05
2018-03-04T22:02:20.501Z,58.30
2018-03-04T22:04:46.823Z,58.35
2018-03-04T22:07:16.157Z,63.60
2018-03-04T22:09:42.475Z,59.70
2018-03-04T22:12:08.833Z,50.58
2018-03-04T22:14:35.157Z,56.17
2018-03-04T22:17:01.485Z,61.67
2018-03-04T22:19:27.821Z,57.95
2018-03-04T22:21:54.627Z,50.10
2018-03-04T22:24:20.953Z,51.28
2018-03-04T22:26:47.258Z,45.05
2018-03-04T22:29:13.599Z,52.28
2018-03-04T22:31:39.910Z,52.25
2018-03-04T22:34:06.994Z,51.58
2018-03-04T22:36:35.575Z,47.83
2018-03-04T22:41:36.116Z,61.13
2018-03-04T22:44:05.502Z,55.92
2018-03-04T22:46:31.823Z,49.17
2018-03-04T22:49:01.106Z,55.25
2018-03-04T22:51:27.430Z,51.13
2018-03-04T22:53:54.473Z,55.67
2018-03-04T22:56:21.510Z,54.15
2018-03-04T22:58:48.822Z,55.17
2018-03-04T23:01:15.902Z,48.97
2018-03-04T23:03:42.249Z,46.10
2018-03-04T23:06:08.571Z,52.92
2018-03-04T23:08:34.889Z,56.58
2018-03-04T23:11:01.198Z,46.85
2018-03-04T23:13:28.255Z,52.95
2018-03-04T23:15:55.303Z,46.05
2018-03-04T23:18:22.403Z,43.13
2018-03-04T23:20:48.725Z,41.47
2018-03-04T23:23:15.043Z,47.72
2018-03-04T23:25:41.374Z,45.22
2018-03-04T23:28:07.678Z,40.55
2018-03-04T23:30:34.730Z,37.10
2018-03-04T23:33:02.815Z,40.00
2018-03-04T23:35:29.139Z,40.50
2018-03-04T23:37:56.208Z,45.50
2018-03-04T23:40:22.513Z,33.88
2018-03-04T23:42:49.562Z,34.88
2018-03-04T23:45:16.627Z,33.88
2018-03-04T23:47:43.686Z,31.30
2018-03-04T23:50:10.004Z,28.75
2018-03-04T23:52:36.327Z,29.35
2018-03-04T23:55:02.668Z,24.70
2018-03-04T23:57:29.002Z,24.98
2018-03-04T23:59:55.310Z,20.15
